Terminal Aerodrome Forecast
Issued by NWS

Home | Current Version | Previous Version | Text Only | Print | Product List | Glossary On
Versions: 1 2 3 4 5 6 7 8 9 10 11 12 13 14 15 16
000
FTUS41 KCAR 020557
TAFPQI
TAF
KPQI 020557Z 0206/0306 09005KT P6SM BKN140
     FM021500 09008KT 3SM -RA OVC030
     FM030200 03005KT 3SM -RA OVC020
     FM030500 01005KT 6SM -RA OVC010
      AMD LTD TO CLD VIS AND WIND=

USA.gov is the U.S. government's official web portal to all federal, state and local government web resources and services.